createdAt,value
2022-09-28T00:02:17.583Z,0.38
2022-09-28T00:04:44.955Z,0.60
2022-09-28T00:07:12.480Z,0.40
2022-09-28T00:09:39.676Z,0.40
2022-09-28T00:12:06.935Z,0.40
2022-09-28T00:14:34.129Z,0.40
2022-09-28T00:17:01.600Z,0.40
2022-09-28T00:19:28.853Z,0.43
2022-09-28T00:21:56.114Z,0.40
2022-09-28T00:24:27.540Z,0.60
2022-09-28T00:26:57.331Z,0.50
2022-09-28T00:29:32.258Z,0.40
2022-09-28T00:32:03.717Z,0.40
2022-09-28T00:34:36.626Z,0.50
2022-09-28T00:37:05.892Z,0.50
2022-09-28T00:39:33.254Z,0.40
2022-09-28T00:42:00.555Z,0.45
2022-09-28T00:44:44.286Z,0.40
2022-09-28T00:47:20.300Z,0.40
2022-09-28T00:50:13.010Z,0.40
2022-09-28T00:52:53.144Z,0.40
2022-09-28T00:55:34.351Z,0.40
2022-09-28T00:58:05.285Z,0.40
2022-09-28T01:00:32.804Z,0.50
2022-09-28T01:03:00.369Z,0.40
2022-09-28T01:05:28.067Z,0.50
2022-09-28T01:07:57.633Z,0.40
2022-09-28T01:10:25.201Z,0.32
2022-09-28T01:12:52.470Z,0.40
2022-09-28T01:15:22.201Z,0.45
2022-09-28T01:18:22.299Z,0.50
2022-09-28T01:21:07.168Z,0.73
2022-09-28T01:24:02.754Z,0.45
2022-09-28T01:26:38.651Z,0.45
2022-09-28T01:29:16.492Z,0.50
2022-09-28T01:31:50.861Z,0.30
2022-09-28T01:34:28.639Z,0.40
2022-09-28T01:36:58.242Z,0.77
2022-09-28T01:39:31.338Z,0.30
2022-09-28T01:42:05.373Z,0.40
2022-09-28T01:44:39.822Z,0.40
2022-09-28T01:47:14.599Z,0.63
2022-09-28T01:52:19.469Z,0.40
2022-09-28T01:54:55.729Z,0.40
2022-09-28T01:57:35.861Z,0.40
2022-09-28T02:00:10.594Z,0.35
2022-09-28T02:03:05.605Z,0.40
2022-09-28T02:05:38.659Z,0.30
2022-09-28T02:08:35.470Z,0.38
2022-09-28T02:11:16.217Z,0.38
2022-09-28T02:14:04.646Z,0.40
2022-09-28T02:16:41.232Z,0.30
2022-09-28T02:19:19.065Z,0.45
2022-09-28T02:22:08.440Z,0.40
2022-09-28T02:24:35.598Z,0.60
2022-09-28T02:27:11.251Z,0.40
2022-09-28T02:29:38.554Z,0.30
2022-09-28T02:32:05.924Z,0.50
2022-09-28T02:34:33.392Z,0.40
2022-09-28T02:37:01.772Z,0.25
2022-09-28T02:39:29.030Z,0.30
2022-09-28T02:42:11.777Z,0.40
2022-09-28T02:45:02.789Z,0.40
2022-09-28T02:47:45.091Z,0.22
2022-09-28T02:50:40.939Z,0.40
2022-09-28T02:53:42.066Z,0.40
2022-09-28T02:56:40.170Z,0.50
2022-09-28T02:59:33.114Z,0.25
2022-09-28T03:02:26.182Z,0.22
2022-09-28T03:05:13.037Z,0.30
2022-09-28T03:08:32.508Z,0.30
2022-09-28T03:11:10.648Z,0.30
2022-09-28T03:13:38.241Z,0.60
2022-09-28T03:16:17.412Z,0.20
2022-09-28T03:18:45.329Z,0.47
2022-09-28T03:21:14.255Z,0.10
2022-09-28T03:23:42.009Z,0.50
2022-09-28T03:26:12.842Z,0.30
2022-09-28T03:28:40.664Z,0.28
2022-09-28T03:31:08.517Z,0.40
2022-09-28T03:33:35.795Z,0.47
2022-09-28T03:36:03.049Z,0.45
2022-09-28T03:38:30.359Z,0.40
2022-09-28T03:41:00.089Z,0.50
2022-09-28T03:43:29.717Z,0.35
2022-09-28T03:45:58.804Z,0.50
2022-09-28T03:48:32.070Z,0.30
2022-09-28T03:51:02.770Z,0.40
2022-09-28T03:53:30.557Z,0.32
2022-09-28T03:56:06.610Z,0.50
2022-09-28T03:58:34.011Z,0.47
2022-09-28T04:01:20.285Z,0.40
2022-09-28T04:03:53.010Z,0.50
2022-09-28T04:06:20.232Z,0.40
2022-09-28T04:08:47.466Z,0.43
2022-09-28T04:11:14.786Z,0.40
2022-09-28T04:13:42.044Z,0.35
2022-09-28T04:16:11.618Z,0.40
2022-09-28T04:18:39.886Z,0.40
2022-09-28T04:21:11.335Z,0.40
2022-09-28T04:23:39.972Z,0.50
2022-09-28T04:26:12.982Z,0.43
2022-09-28T04:29:01.664Z,0.40
2022-09-28T04:31:44.312Z,0.40
2022-09-28T04:34:12.802Z,0.40
2022-09-28T04:36:40.494Z,0.40
2022-09-28T04:39:07.733Z,0.40
2022-09-28T04:41:34.929Z,0.52
2022-09-28T04:44:02.712Z,0.50
2022-09-28T04:46:30.239Z,0.32
2022-09-28T04:48:57.483Z,0.40
2022-09-28T04:51:24.821Z,0.65
2022-09-28T04:53:52.017Z,0.40
2022-09-28T04:56:20.043Z,0.38
2022-09-28T04:58:51.899Z,0.47
2022-09-28T05:01:23.488Z,0.45
2022-09-28T05:03:51.179Z,0.40
2022-09-28T05:06:18.633Z,0.45
2022-09-28T05:08:47.254Z,0.65
2022-09-28T05:11:15.439Z,0.45
2022-09-28T05:13:46.551Z,0.40
2022-09-28T05:16:16.165Z,0.35
2022-09-28T05:18:43.621Z,0.40
2022-09-28T05:21:15.416Z,0.40
2022-09-28T05:23:47.573Z,0.32
2022-09-28T05:26:15.161Z,0.50
2022-09-28T05:28:42.569Z,0.30
2022-09-28T05:31:11.276Z,0.50
2022-09-28T05:33:38.615Z,0.47
2022-09-28T05:36:08.419Z,0.40
2022-09-28T05:38:35.679Z,0.40
2022-09-28T05:41:06.568Z,0.38
2022-09-28T05:43:34.309Z,0.40
2022-09-28T05:46:01.594Z,0.50
2022-09-28T05:48:29.747Z,0.50
2022-09-28T05:50:58.773Z,0.60
2022-09-28T05:53:26.137Z,0.65
2022-09-28T05:55:57.119Z,0.50
2022-09-28T05:58:24.355Z,0.60
2022-09-28T06:00:55.776Z,0.65
2022-09-28T06:03:23.772Z,0.50
2022-09-28T06:05:51.400Z,0.63
2022-09-28T06:08:18.847Z,0.60
2022-09-28T06:10:46.124Z,0.45
2022-09-28T06:13:13.437Z,0.50
2022-09-28T06:15:42.843Z,0.70
2022-09-28T06:18:15.725Z,0.70
2022-09-28T06:20:43.210Z,0.82
2022-09-28T06:23:12.545Z,1.10
2022-09-28T06:25:40.269Z,1.10
2022-09-28T06:28:10.847Z,1.50
2022-09-28T06:30:39.313Z,1.10
2022-09-28T06:33:09.896Z,1.20
2022-09-28T06:35:37.930Z,1.25
2022-09-28T06:38:05.192Z,1.20
2022-09-28T06:40:33.535Z,1.35
2022-09-28T06:43:04.789Z,1.20
2022-09-28T06:45:32.039Z,1.25
2022-09-28T06:48:00.932Z,0.90
2022-09-28T06:50:33.202Z,1.30
2022-09-28T06:53:01.230Z,1.20
2022-09-28T06:55:29.234Z,0.80
2022-09-28T06:58:04.669Z,0.98
2022-09-28T07:00:34.684Z,1.08
2022-09-28T07:03:07.506Z,1.00
2022-09-28T07:05:37.199Z,0.85
2022-09-28T07:08:05.014Z,1.00
2022-09-28T07:10:32.699Z,1.20
2022-09-28T07:13:04.784Z,1.00
2022-09-28T07:15:32.899Z,1.40
2022-09-28T07:18:03.713Z,1.10
2022-09-28T07:20:46.234Z,1.00
2022-09-28T07:23:19.793Z,0.95
2022-09-28T07:25:48.800Z,1.30
2022-09-28T07:28:17.330Z,1.17
2022-09-28T07:30:44.977Z,1.10
2022-09-28T07:33:14.633Z,0.90
2022-09-28T07:35:44.837Z,1.02
2022-09-28T07:38:13.197Z,1.08
2022-09-28T07:40:58.826Z,0.70
2022-09-28T07:43:26.055Z,0.63
2022-09-28T07:45:54.870Z,0.85
2022-09-28T07:48:22.861Z,0.80
2022-09-28T07:50:55.034Z,0.85
2022-09-28T07:53:25.183Z,0.90
2022-09-28T07:56:02.103Z,1.10
2022-09-28T07:58:32.900Z,1.20
2022-09-28T08:01:04.086Z,0.80
2022-09-28T08:03:31.421Z,0.80
2022-09-28T08:06:05.115Z,1.08
2022-09-28T08:08:34.479Z,0.80
2022-09-28T08:11:02.338Z,1.00
2022-09-28T08:13:31.057Z,0.80
2022-09-28T08:16:01.949Z,0.77
2022-09-28T08:18:29.919Z,1.10
2022-09-28T08:21:16.047Z,1.00
2022-09-28T08:23:43.328Z,1.15
2022-09-28T08:26:15.242Z,1.10
2022-09-28T08:28:45.016Z,0.95
2022-09-28T08:31:12.484Z,1.30
2022-09-28T08:33:42.089Z,0.90
2022-09-28T08:36:10.097Z,1.33
2022-09-28T08:38:37.416Z,1.02
2022-09-28T08:41:35.245Z,1.38
2022-09-28T08:44:26.825Z,1.27
2022-09-28T08:47:04.469Z,1.05
2022-09-28T08:49:38.900Z,1.30
2022-09-28T08:52:23.428Z,1.00
2022-09-28T08:55:29.577Z,1.00
2022-09-28T08:58:04.294Z,0.98
2022-09-28T09:00:42.857Z,0.90
2022-09-28T09:03:19.959Z,0.82
2022-09-28T09:06:30.157Z,0.93
2022-09-28T09:09:22.410Z,0.88
2022-09-28T09:12:20.196Z,0.90
2022-09-28T09:15:11.138Z,0.90
2022-09-28T09:18:08.836Z,0.80
2022-09-28T09:20:56.836Z,0.95
2022-09-28T09:23:54.030Z,0.95
2022-09-28T09:26:39.356Z,0.98
2022-09-28T09:29:15.524Z,0.90
2022-09-28T09:32:03.987Z,0.73
2022-09-28T09:35:06.243Z,0.75
2022-09-28T09:38:16.130Z,0.75
2022-09-28T09:41:04.999Z,0.80
2022-09-28T09:43:50.500Z,1.08
2022-09-28T09:46:29.559Z,0.80
2022-09-28T09:49:15.015Z,0.70
2022-09-28T09:52:11.190Z,0.60
2022-09-28T09:54:45.895Z,0.75
2022-09-28T09:57:30.536Z,0.90
2022-09-28T10:00:01.748Z,0.60
2022-09-28T10:02:33.309Z,0.80
2022-09-28T10:05:11.999Z,0.98
2022-09-28T10:08:04.794Z,0.70
2022-09-28T10:10:36.796Z,0.70
2022-09-28T10:13:04.614Z,0.70
2022-09-28T10:15:35.311Z,0.77
2022-09-28T10:18:10.389Z,0.70
2022-09-28T10:20:43.779Z,0.60
2022-09-28T10:23:29.987Z,0.75
2022-09-28T10:26:03.849Z,0.70
2022-09-28T10:28:50.576Z,0.68
2022-09-28T10:31:41.995Z,0.80
2022-09-28T10:34:14.737Z,0.60
2022-09-28T10:37:00.359Z,0.60
2022-09-28T10:39:50.429Z,0.75
2022-09-28T10:42:28.387Z,0.63
2022-09-28T10:45:13.809Z,0.50
2022-09-28T10:47:44.810Z,0.60
2022-09-28T10:50:25.660Z,0.60
2022-09-28T10:52:52.956Z,0.70
2022-09-28T10:55:32.599Z,0.50
2022-09-28T10:58:00.741Z,0.63
2022-09-28T11:00:43.526Z,0.82
2022-09-28T11:03:27.217Z,0.60
2022-09-28T11:06:04.765Z,0.70
2022-09-28T11:08:38.514Z,0.55
2022-09-28T11:11:17.225Z,0.70
2022-09-28T11:13:51.842Z,0.60
2022-09-28T11:18:49.227Z,0.70
2022-09-28T11:21:21.720Z,0.60
2022-09-28T11:24:20.688Z,0.60
2022-09-28T11:26:56.540Z,0.55
2022-09-28T11:29:26.840Z,0.50
2022-09-28T11:31:59.189Z,0.70
2022-09-28T11:34:58.087Z,0.60
2022-09-28T11:38:06.196Z,0.40
2022-09-28T11:40:51.636Z,0.70
2022-09-28T11:43:39.539Z,0.80
2022-09-28T11:46:17.889Z,0.50
2022-09-28T11:48:51.387Z,0.50
2022-09-28T11:51:31.965Z,0.63
2022-09-28T11:54:14.441Z,0.50
2022-09-28T11:56:48.974Z,0.50
2022-09-28T11:59:24.985Z,0.50
2022-09-28T12:01:57.108Z,0.40
2022-09-28T12:04:38.852Z,0.32
2022-09-28T12:07:25.792Z,0.40
2022-09-28T12:10:10.536Z,0.43
2022-09-28T12:13:01.171Z,0.50
2022-09-28T12:16:07.459Z,0.45
2022-09-28T12:18:53.441Z,0.30
2022-09-28T12:21:56.193Z,0.40
2022-09-28T12:24:38.512Z,0.40
2022-09-28T12:27:20.916Z,0.40
2022-09-28T12:30:11.416Z,0.40
2022-09-28T12:32:56.671Z,0.30
2022-09-28T12:35:29.645Z,0.30
2022-09-28T12:38:09.219Z,0.40
2022-09-28T12:40:45.448Z,0.40
2022-09-28T12:43:31.494Z,0.45
2022-09-28T12:46:23.390Z,0.50
2022-09-28T12:50:13.725Z,0.40
2022-09-28T12:52:29.553Z,0.60
2022-09-28T12:55:19.533Z,0.40
2022-09-28T12:57:52.571Z,0.50
2022-09-28T13:00:23.543Z,0.50
2022-09-28T13:03:07.215Z,0.57
2022-09-28T13:05:46.341Z,0.40
2022-09-28T13:08:48.809Z,0.40
2022-09-28T13:11:41.557Z,0.30
2022-09-28T13:14:27.495Z,0.57
2022-09-28T13:17:20.681Z,0.40
2022-09-28T13:20:01.046Z,0.50
2022-09-28T13:22:44.180Z,0.65
2022-09-28T13:25:19.106Z,0.40
2022-09-28T13:30:19.168Z,0.50
2022-09-28T13:32:48.168Z,0.50
2022-09-28T13:35:20.561Z,0.50
2022-09-28T13:38:08.460Z,0.45
2022-09-28T13:41:03.877Z,0.52
2022-09-28T13:46:15.383Z,0.40
2022-09-28T13:48:50.297Z,0.60
2022-09-28T13:51:20.634Z,0.40
2022-09-28T13:54:17.080Z,0.60
2022-09-28T13:57:25.456Z,0.60
2022-09-28T14:00:07.659Z,0.40
2022-09-28T14:02:53.572Z,0.50
2022-09-28T14:05:25.017Z,0.40
2022-09-28T14:08:11.463Z,0.38
2022-09-28T14:10:51.661Z,0.50
2022-09-28T14:13:43.609Z,0.63
2022-09-28T14:16:23.284Z,0.60
2022-09-28T14:18:54.466Z,0.40
2022-09-28T14:21:58.151Z,0.45
2022-09-28T14:24:31.335Z,0.40
2022-09-28T14:27:11.524Z,0.50
2022-09-28T14:29:39.981Z,0.40
2022-09-28T14:32:10.207Z,0.50
2022-09-28T14:34:46.652Z,0.40
2022-09-28T14:37:53.280Z,0.47
2022-09-28T14:40:49.442Z,0.40
2022-09-28T14:43:38.059Z,0.35
2022-09-28T14:46:11.380Z,0.50
2022-09-28T14:48:43.161Z,0.30
2022-09-28T14:51:33.088Z,0.47
2022-09-28T14:54:24.412Z,0.40
2022-09-28T14:56:57.542Z,0.40
2022-09-28T14:59:32.391Z,0.40
2022-09-28T15:02:01.429Z,0.50
2022-09-28T15:04:33.657Z,0.50
2022-09-28T15:07:00.967Z,0.40
2022-09-28T15:09:38.469Z,0.40
2022-09-28T15:12:13.099Z,0.50
2022-09-28T15:17:39.819Z,0.60
2022-09-28T15:20:30.003Z,0.55
2022-09-28T15:23:00.060Z,0.60
2022-09-28T15:25:32.639Z,0.50
2022-09-28T15:28:22.107Z,0.55
2022-09-28T15:30:50.337Z,0.47
2022-09-28T15:33:45.351Z,0.60
2022-09-28T15:36:26.436Z,0.50
2022-09-28T15:39:04.956Z,0.40
2022-09-28T15:41:33.623Z,0.50
2022-09-28T15:44:13.194Z,0.68
2022-09-28T15:46:44.215Z,0.60
2022-09-28T15:49:41.125Z,0.50
2022-09-28T15:52:28.073Z,0.40
2022-09-28T15:54:57.283Z,0.43
2022-09-28T15:57:39.986Z,0.50
2022-09-28T16:00:27.074Z,0.40
2022-09-28T16:03:00.485Z,0.50
2022-09-28T16:05:35.808Z,0.40
2022-09-28T16:08:05.011Z,0.45
2022-09-28T16:10:34.334Z,0.45
2022-09-28T16:13:16.329Z,0.50
2022-09-28T16:15:44.069Z,0.40
2022-09-28T16:18:16.335Z,0.60
2022-09-28T16:20:44.568Z,0.52
2022-09-28T16:23:22.870Z,0.50
2022-09-28T16:25:52.162Z,0.60
2022-09-28T16:28:37.457Z,0.50
2022-09-28T16:31:22.153Z,0.80
2022-09-28T16:33:54.184Z,1.25
2022-09-28T16:36:22.687Z,1.50
2022-09-28T16:38:50.369Z,1.33
2022-09-28T16:41:21.348Z,1.17
2022-09-28T16:43:54.711Z,1.75
2022-09-28T16:46:34.926Z,2.22
2022-09-28T16:49:03.704Z,2.13
2022-09-28T16:51:30.988Z,2.35
2022-09-28T16:54:31.942Z,2.38
2022-09-28T16:56:59.899Z,2.85
2022-09-28T16:59:28.236Z,2.67
2022-09-28T17:01:56.698Z,2.50
2022-09-28T17:04:25.913Z,2.53
2022-09-28T17:06:55.293Z,2.83
2022-09-28T17:09:23.302Z,2.35
2022-09-28T17:11:56.994Z,2.75
2022-09-28T17:14:24.682Z,3.60
2022-09-28T17:17:12.689Z,3.00
2022-09-28T17:19:42.114Z,2.78
2022-09-28T17:22:10.467Z,3.72
2022-09-28T17:24:37.842Z,3.58
2022-09-28T17:27:06.938Z,2.85
2022-09-28T17:29:34.377Z,3.13
2022-09-28T17:32:01.821Z,3.20
2022-09-28T17:34:29.173Z,3.05
2022-09-28T17:36:56.460Z,2.83
2022-09-28T17:39:25.145Z,2.65
2022-09-28T17:41:52.345Z,2.88
2022-09-28T17:44:20.397Z,2.83
2022-09-28T17:46:49.587Z,3.25
2022-09-28T17:49:17.489Z,2.97
2022-09-28T17:51:44.702Z,2.67
2022-09-28T17:54:13.575Z,2.40
2022-09-28T17:56:42.389Z,2.97
2022-09-28T17:59:14.464Z,2.60
2022-09-28T18:01:41.893Z,2.67
2022-09-28T18:04:19.187Z,2.80
2022-09-28T18:06:55.281Z,2.30
2022-09-28T18:09:25.356Z,2.17
2022-09-28T18:12:00.935Z,2.50
2022-09-28T18:14:28.536Z,1.90
2022-09-28T18:16:56.070Z,2.38
2022-09-28T18:19:23.338Z,2.20
2022-09-28T18:21:50.570Z,2.38
2022-09-28T18:24:18.126Z,2.35
2022-09-28T18:26:45.442Z,2.72
2022-09-28T18:29:12.714Z,2.00
2022-09-28T18:31:39.974Z,2.08
2022-09-28T18:34:07.610Z,2.20
2022-09-28T18:36:35.860Z,1.90
2022-09-28T18:39:03.772Z,2.08
2022-09-28T18:41:31.041Z,2.05
2022-09-28T18:44:00.949Z,2.20
2022-09-28T18:46:29.470Z,2.50
2022-09-28T18:48:56.931Z,2.50
2022-09-28T18:51:24.482Z,3.05
2022-09-28T18:53:52.263Z,2.03
2022-09-28T18:56:21.032Z,2.20
2022-09-28T18:58:52.625Z,2.35
2022-09-28T19:01:30.445Z,2.30
2022-09-28T19:04:01.817Z,2.00
2022-09-28T19:06:29.944Z,2.40
2022-09-28T19:08:57.596Z,2.67
2022-09-28T19:11:25.631Z,2.33
2022-09-28T19:13:54.863Z,2.22
2022-09-28T19:16:28.645Z,2.85
2022-09-28T19:19:00.945Z,2.60
2022-09-28T19:21:28.635Z,2.40
2022-09-28T19:23:56.190Z,2.45
2022-09-28T19:26:26.879Z,2.67
2022-09-28T19:28:55.595Z,2.60
2022-09-28T19:31:23.866Z,2.25
2022-09-28T19:33:51.173Z,2.72
2022-09-28T19:36:23.531Z,2.60
2022-09-28T19:38:55.023Z,2.45
2022-09-28T19:41:43.302Z,2.25
2022-09-28T19:44:15.677Z,2.50
2022-09-28T19:46:43.329Z,2.10
2022-09-28T19:49:13.377Z,2.30
2022-09-28T19:52:01.748Z,2.50
2022-09-28T19:54:35.517Z,2.50
2022-09-28T19:57:07.863Z,2.00
2022-09-28T19:59:36.898Z,2.60
2022-09-28T20:02:05.513Z,2.58
2022-09-28T20:04:32.791Z,2.60
2022-09-28T20:07:01.452Z,2.50
2022-09-28T20:09:28.847Z,2.80
2022-09-28T20:11:56.965Z,2.83
2022-09-28T20:14:25.943Z,2.70
2022-09-28T20:16:55.552Z,2.80
2022-09-28T20:19:23.293Z,2.67
2022-09-28T20:21:51.273Z,2.72
2022-09-28T20:24:18.820Z,3.10
2022-09-28T20:26:46.393Z,2.53
2022-09-28T20:29:14.051Z,2.13
2022-09-28T20:31:42.657Z,2.50
2022-09-28T20:34:11.832Z,2.90
2022-09-28T20:36:44.557Z,2.63
2022-09-28T20:39:12.605Z,2.78
2022-09-28T20:41:40.359Z,2.42
2022-09-28T20:44:07.800Z,2.78
2022-09-28T20:46:36.557Z,2.53
2022-09-28T20:49:05.001Z,2.38
2022-09-28T20:51:32.624Z,2.30
2022-09-28T20:54:00.470Z,2.38
2022-09-28T20:56:37.774Z,2.25
2022-09-28T20:59:07.977Z,2.00
2022-09-28T21:01:35.734Z,1.90
2022-09-28T21:04:04.898Z,2.03
2022-09-28T21:06:37.327Z,2.15
2022-09-28T21:09:06.949Z,2.00
2022-09-28T21:11:35.714Z,2.00
2022-09-28T21:14:06.170Z,2.13
2022-09-28T21:16:35.150Z,1.83
2022-09-28T21:19:03.134Z,1.83
2022-09-28T21:21:30.922Z,1.85
2022-09-28T21:23:58.637Z,2.33
2022-09-28T21:26:29.313Z,1.65
2022-09-28T21:29:07.619Z,1.77
2022-09-28T21:31:39.516Z,1.85
2022-09-28T21:34:07.468Z,1.60
2022-09-28T21:36:34.780Z,1.90
2022-09-28T21:39:02.192Z,1.70
2022-09-28T21:41:30.147Z,1.65
2022-09-28T21:43:57.486Z,1.52
2022-09-28T21:46:24.948Z,1.65
2022-09-28T21:48:55.262Z,1.75
2022-09-28T21:51:22.550Z,1.48
2022-09-28T21:53:49.805Z,1.52
2022-09-28T21:56:17.628Z,1.52
2022-09-28T21:58:44.871Z,1.50
2022-09-28T22:01:20.477Z,1.50
2022-09-28T22:03:54.043Z,1.17
2022-09-28T22:06:23.904Z,1.65
2022-09-28T22:08:51.483Z,1.20
2022-09-28T22:11:24.638Z,1.20
2022-09-28T22:13:57.578Z,1.52
2022-09-28T22:16:30.623Z,1.45
2022-09-28T22:18:59.090Z,1.25
2022-09-28T22:21:28.935Z,1.17
2022-09-28T22:24:04.486Z,1.30
2022-09-28T22:26:33.596Z,1.20
2022-09-28T22:29:07.189Z,1.30
2022-09-28T22:31:36.938Z,1.58
2022-09-28T22:34:05.283Z,1.05
2022-09-28T22:36:32.934Z,1.10
2022-09-28T22:39:00.547Z,1.40
2022-09-28T22:41:28.423Z,1.50
2022-09-28T22:43:56.192Z,1.30
2022-09-28T22:46:26.695Z,1.30
2022-09-28T22:48:56.555Z,1.17
2022-09-28T22:51:25.700Z,1.10
2022-09-28T22:53:52.932Z,1.17
2022-09-28T22:56:20.327Z,1.15
2022-09-28T22:58:47.894Z,1.17
2022-09-28T23:01:27.247Z,1.00
2022-09-28T23:03:55.843Z,1.20
2022-09-28T23:06:26.038Z,0.90
2022-09-28T23:08:53.890Z,1.08
2022-09-28T23:11:21.660Z,1.27
2022-09-28T23:13:53.772Z,1.00
2022-09-28T23:16:23.550Z,0.80
2022-09-28T23:18:51.486Z,0.90
2022-09-28T23:21:24.168Z,0.90
2022-09-28T23:23:54.261Z,1.20
2022-09-28T23:26:27.085Z,0.93
2022-09-28T23:28:55.329Z,1.00
2022-09-28T23:31:28.741Z,1.02
2022-09-28T23:34:01.183Z,1.10
2022-09-28T23:36:28.648Z,0.93
2022-09-28T23:38:56.636Z,0.90
2022-09-28T23:41:24.367Z,0.90
2022-09-28T23:43:51.604Z,1.00
2022-09-28T23:46:21.047Z,0.98
2022-09-28T23:48:48.973Z,0.80
2022-09-28T23:51:16.291Z,0.90
2022-09-28T23:53:43.642Z,1.10
2022-09-28T23:56:11.288Z,0.80
2022-09-28T23:58:38.552Z,0.90
